Idleyld Park, Oregon
Current Conditions -  °F | °C
As of 6:53 AM on Monday 22 Dec 2014 (Local Time) from KRBG Reporting Station
Light Rain Light Rain  
Wind Chill: 56°   Ceiling: 3200
Heat Index: 56°   Visibility: 4mi
Dew Point: 53°   Wind: 0mph
Humidity: 90%   Direction: NA
Pressure: 30.33"   Gusts: NA
Location:  43.32°N, 123.03°W
Report Text: KRBG 221453Z AUTO 00000KT 4SM -RA BR OVC032 13/12 A3033 RMK AO2 RAB06 SLP269 P0003 60013 T01330117 51013 $
Loading
Personal Weather Stations






























Interactive Weather Map New forecast layout! Learn more

10-Day Weather Forecast

Advertisements
Track Severe Weather on mobile